createdAt,value
2018-10-19T00:00:58.304Z,29.80
2018-10-19T00:03:27.498Z,21.93
2018-10-19T00:05:56.515Z,25.15
2018-10-19T00:08:25.483Z,30.62
2018-10-19T00:10:54.470Z,33.85
2018-10-19T00:13:23.487Z,34.15
2018-10-19T00:15:52.635Z,29.25
2018-10-19T00:18:21.878Z,37.13
2018-10-19T00:20:50.942Z,34.55
2018-10-19T00:23:20.424Z,33.63
2018-10-19T00:25:49.159Z,26.12
2018-10-19T00:28:18.202Z,31.07
2018-10-19T00:30:47.270Z,31.75
2018-10-19T00:33:16.417Z,27.80
2018-10-19T00:35:45.410Z,29.45
2018-10-19T00:38:14.527Z,25.50
2018-10-19T00:40:43.795Z,27.75
2018-10-19T00:43:12.408Z,30.70
2018-10-19T00:45:45.442Z,33.73
2018-10-19T00:48:16.762Z,36.23
2018-10-19T00:50:46.027Z,34.83
2018-10-19T00:53:15.400Z,39.85
2018-10-19T00:55:44.614Z,38.73
2018-10-19T00:58:13.691Z,33.65
2018-10-19T01:00:43.281Z,34.75
2018-10-19T01:03:12.370Z,42.25
2018-10-19T01:05:41.856Z,40.25
2018-10-19T01:08:11.442Z,35.08
2018-10-19T01:10:40.641Z,39.15
2018-10-19T01:13:10.083Z,38.17
2018-10-19T01:15:39.187Z,35.28
2018-10-19T01:18:08.340Z,38.73
2018-10-19T01:20:37.659Z,34.05
2018-10-19T01:23:06.550Z,31.60
2018-10-19T01:25:35.446Z,32.83
2018-10-19T01:28:04.227Z,31.20
2018-10-19T01:30:33.225Z,29.80
2018-10-19T01:33:02.604Z,29.12
2018-10-19T01:35:32.039Z,31.25
2018-10-19T01:38:01.109Z,36.70
2018-10-19T01:40:30.124Z,29.98
2018-10-19T01:43:02.947Z,28.20
2018-10-19T01:45:32.131Z,40.35
2018-10-19T01:48:01.146Z,35.55
2018-10-19T01:50:30.199Z,31.97
2018-10-19T01:52:59.202Z,33.67
2018-10-19T01:55:28.298Z,28.60
2018-10-19T01:57:57.434Z,28.42
2018-10-19T02:00:26.279Z,33.58
2018-10-19T02:02:55.061Z,31.07
2018-10-19T02:05:23.678Z,28.85
2018-10-19T02:07:55.645Z,37.78
2018-10-19T02:10:25.039Z,29.85
2018-10-19T02:12:53.947Z,31.50
2018-10-19T02:15:23.008Z,31.15
2018-10-19T02:17:52.455Z,28.90
2018-10-19T02:20:21.515Z,36.85
2018-10-19T02:22:50.631Z,26.05
2018-10-19T02:25:26.259Z,28.15
2018-10-19T02:27:55.252Z,34.08
2018-10-19T02:30:24.321Z,40.90
2018-10-19T02:32:53.456Z,29.92
2018-10-19T02:35:22.551Z,39.30
2018-10-19T02:37:51.483Z,30.55
2018-10-19T02:40:20.845Z,29.02
2018-10-19T02:42:49.514Z,36.53
2018-10-19T02:45:18.358Z,31.68
2018-10-19T02:47:47.231Z,39.90
2018-10-19T02:50:16.234Z,30.40
2018-10-19T02:52:45.371Z,25.27
2018-10-19T02:55:15.017Z,28.30
2018-10-19T02:57:43.912Z,28.35
2018-10-19T03:00:22.758Z,37.00
2018-10-19T03:02:51.827Z,42.50
2018-10-19T03:05:30.752Z,38.53
2018-10-19T03:08:00.640Z,30.15
2018-10-19T03:10:29.643Z,32.20
2018-10-19T03:12:58.656Z,30.97
2018-10-19T03:15:27.443Z,37.33
2018-10-19T03:17:56.338Z,34.33
2018-10-19T03:20:25.282Z,30.55
2018-10-19T03:22:54.482Z,29.52
2018-10-19T03:25:23.608Z,36.68
2018-10-19T03:27:52.539Z,34.20
2018-10-19T03:30:21.661Z,38.53
2018-10-19T03:32:50.711Z,36.73
2018-10-19T03:35:19.607Z,38.28
2018-10-19T03:37:48.775Z,31.75
2018-10-19T03:40:18.013Z,28.45
2018-10-19T03:42:46.897Z,31.10
2018-10-19T03:45:15.947Z,34.27
2018-10-19T03:47:44.966Z,25.97
2018-10-19T03:50:13.975Z,35.58
2018-10-19T03:52:43.253Z,35.48
2018-10-19T03:55:12.063Z,26.87
2018-10-19T03:57:41.006Z,29.23
2018-10-19T04:00:10.935Z,36.68
2018-10-19T04:02:40.080Z,28.67
2018-10-19T04:05:09.387Z,36.98
2018-10-19T04:07:38.588Z,36.80
2018-10-19T04:10:08.387Z,34.65
2018-10-19T04:12:37.578Z,42.38
2018-10-19T04:15:07.660Z,50.73
2018-10-19T04:17:36.521Z,54.77
2018-10-19T04:20:05.939Z,48.30
2018-10-19T04:22:35.117Z,51.15
2018-10-19T04:25:04.468Z,45.92
2018-10-19T04:27:33.476Z,53.20
2018-10-19T04:30:03.080Z,32.05
2018-10-19T04:32:32.243Z,35.28
2018-10-19T04:35:01.159Z,29.90
2018-10-19T04:37:30.194Z,39.88
2018-10-19T04:39:58.869Z,38.25
2018-10-19T04:42:28.113Z,37.88
2018-10-19T04:44:57.138Z,34.15
2018-10-19T04:47:26.283Z,37.33
2018-10-19T04:49:55.493Z,42.83
2018-10-19T04:52:24.462Z,36.38
2018-10-19T04:54:53.919Z,37.42
2018-10-19T04:57:23.067Z,39.38
2018-10-19T04:59:52.075Z,33.85
2018-10-19T05:02:21.863Z,39.42
2018-10-19T05:04:50.956Z,38.73
2018-10-19T05:07:20.260Z,37.83
2018-10-19T05:09:49.350Z,35.03
2018-10-19T05:12:18.589Z,31.00
2018-10-19T05:14:47.624Z,51.50
2018-10-19T05:17:16.704Z,66.57
2018-10-19T05:19:46.093Z,46.85
2018-10-19T05:22:15.884Z,50.30
2018-10-19T05:24:44.938Z,63.48
2018-10-19T05:27:14.183Z,58.28
2018-10-19T05:29:43.275Z,57.05
2018-10-19T05:32:14.669Z,64.42
2018-10-19T05:34:43.783Z,66.15
2018-10-19T05:37:12.829Z,73.37
2018-10-19T05:39:41.987Z,48.20
2018-10-19T05:42:11.076Z,65.20
2018-10-19T05:44:40.911Z,47.30
2018-10-19T05:47:10.201Z,55.45
2018-10-19T05:49:39.651Z,56.68
2018-10-19T05:52:08.896Z,51.48
2018-10-19T05:54:37.986Z,47.98
2018-10-19T05:57:07.074Z,39.80
2018-10-19T05:59:36.102Z,60.15
2018-10-19T06:02:05.490Z,59.67
2018-10-19T06:04:34.534Z,60.03
2018-10-19T06:07:03.663Z,49.55
2018-10-19T06:09:32.735Z,49.73
2018-10-19T06:12:01.991Z,41.18
2018-10-19T06:14:31.479Z,36.73
2018-10-19T06:17:01.343Z,47.85
2018-10-19T06:19:30.631Z,41.08
2018-10-19T06:21:59.787Z,40.43
2018-10-19T06:24:28.919Z,51.15
2018-10-19T06:26:58.463Z,43.10
2018-10-19T06:29:27.647Z,54.30
2018-10-19T06:31:56.885Z,42.35
2018-10-19T06:34:26.041Z,38.75
2018-10-19T06:36:55.359Z,36.93
2018-10-19T06:39:24.855Z,35.65
2018-10-19T06:41:54.132Z,31.05
2018-10-19T06:44:23.231Z,39.45
2018-10-19T06:46:52.356Z,38.55
2018-10-19T06:49:21.495Z,39.70
2018-10-19T06:51:51.019Z,44.67
2018-10-19T06:54:20.260Z,35.25
2018-10-19T06:56:49.355Z,43.13
2018-10-19T06:59:18.685Z,38.70
2018-10-19T07:01:47.963Z,39.33
2018-10-19T07:04:17.082Z,37.50
2018-10-19T07:06:46.360Z,35.70
2018-10-19T07:09:15.315Z,40.30
2018-10-19T07:11:44.492Z,38.92
2018-10-19T07:14:14.045Z,40.40
2018-10-19T07:16:43.585Z,37.48
2018-10-19T07:19:12.850Z,36.45
2018-10-19T07:21:42.047Z,37.30
2018-10-19T07:24:11.154Z,44.55
2018-10-19T07:26:40.230Z,36.90
2018-10-19T07:29:09.395Z,35.73
2018-10-19T07:31:38.383Z,34.50
2018-10-19T07:34:07.549Z,50.23
2018-10-19T07:36:36.737Z,37.50
2018-10-19T07:39:07.507Z,38.85
2018-10-19T07:41:37.222Z,35.15
2018-10-19T07:44:06.800Z,40.67
2018-10-19T07:46:36.007Z,26.07
2018-10-19T07:49:05.247Z,36.85
2018-10-19T07:51:34.425Z,30.45
2018-10-19T07:54:03.545Z,36.28
2018-10-19T07:56:32.807Z,42.48
2018-10-19T07:59:02.051Z,30.15
2018-10-19T08:01:31.212Z,38.33
2018-10-19T08:04:00.508Z,29.18
2018-10-19T08:06:29.910Z,32.13
2018-10-19T08:08:59.013Z,23.38
2018-10-19T08:11:28.407Z,31.23
2018-10-19T08:13:57.725Z,37.73
2018-10-19T08:16:26.888Z,29.18
2018-10-19T08:18:56.610Z,31.77
2018-10-19T08:21:25.860Z,35.52
2018-10-19T08:23:55.046Z,25.77
2018-10-19T08:26:24.316Z,28.57
2018-10-19T08:28:53.622Z,27.50
2018-10-19T08:31:23.023Z,27.75
2018-10-19T08:33:52.647Z,31.50
2018-10-19T08:36:22.300Z,31.12
2018-10-19T08:38:51.473Z,35.08
2018-10-19T08:41:20.642Z,33.95
2018-10-19T08:43:50.046Z,30.32
2018-10-19T08:46:24.306Z,24.98
2018-10-19T08:48:53.841Z,25.08
2018-10-19T08:51:23.165Z,34.25
2018-10-19T08:53:52.161Z,26.42
2018-10-19T08:56:21.461Z,31.02
2018-10-19T08:58:50.697Z,31.23
2018-10-19T09:01:20.102Z,36.48
2018-10-19T09:03:50.404Z,34.80
2018-10-19T09:06:19.818Z,26.52
2018-10-19T09:08:49.102Z,26.27
2018-10-19T09:11:18.477Z,37.55
2018-10-19T09:13:47.737Z,28.10
2018-10-19T09:16:17.006Z,33.00
2018-10-19T09:18:46.339Z,30.05
2018-10-19T09:21:15.675Z,25.77
2018-10-19T09:23:45.097Z,32.93
2018-10-19T09:26:14.435Z,31.95
2018-10-19T09:28:43.810Z,27.90
2018-10-19T09:31:13.106Z,26.75
2018-10-19T09:33:42.504Z,32.10
2018-10-19T09:36:11.927Z,33.63
2018-10-19T09:38:41.251Z,31.07
2018-10-19T09:41:10.469Z,30.75
2018-10-19T09:43:39.731Z,25.70
2018-10-19T09:46:08.944Z,31.95
2018-10-19T09:48:38.234Z,30.97
2018-10-19T09:51:07.847Z,20.90
2018-10-19T09:53:37.055Z,26.62
2018-10-19T09:56:06.403Z,29.67
2018-10-19T09:58:35.800Z,26.52
2018-10-19T10:01:09.114Z,21.25
2018-10-19T10:03:38.439Z,26.52
2018-10-19T10:06:07.734Z,32.28
2018-10-19T10:08:37.598Z,33.08
2018-10-19T10:11:07.112Z,22.40
2018-10-19T10:13:36.272Z,25.95
2018-10-19T10:16:05.617Z,24.25
2018-10-19T10:18:35.032Z,25.35
2018-10-19T10:21:04.239Z,24.20
2018-10-19T10:23:33.384Z,25.40
2018-10-19T10:26:02.593Z,26.93
2018-10-19T10:28:31.851Z,32.53
2018-10-19T10:31:01.297Z,21.57
2018-10-19T10:33:30.841Z,25.95
2018-10-19T10:36:00.080Z,18.50
2018-10-19T10:38:29.373Z,15.68
2018-10-19T10:40:58.675Z,23.70
2018-10-19T10:43:27.911Z,26.97
2018-10-19T10:45:57.509Z,21.33
2018-10-19T10:48:26.792Z,20.32
2018-10-19T10:50:57.264Z,23.35
2018-10-19T10:53:26.710Z,16.67
2018-10-19T10:55:56.010Z,22.13
2018-10-19T10:58:25.518Z,24.32
2018-10-19T11:00:54.885Z,25.52
2018-10-19T11:03:23.858Z,25.17
2018-10-19T11:05:53.298Z,23.35
2018-10-19T11:08:22.524Z,22.85
2018-10-19T11:10:51.836Z,21.40
2018-10-19T11:13:21.122Z,17.25
2018-10-19T11:15:50.550Z,17.32
2018-10-19T11:18:20.106Z,18.85
2018-10-19T11:20:49.683Z,20.60
2018-10-19T11:23:19.282Z,23.25
2018-10-19T11:25:48.564Z,15.83
2018-10-19T11:28:17.765Z,13.22
2018-10-19T11:30:47.398Z,17.67
2018-10-19T11:33:16.686Z,14.87
2018-10-19T11:35:45.968Z,14.28
2018-10-19T11:38:15.272Z,16.62
2018-10-19T11:40:44.653Z,15.03
2018-10-19T11:43:14.396Z,20.12
2018-10-19T11:45:43.793Z,8.33
2018-10-19T11:48:13.160Z,14.55
2018-10-19T11:50:42.342Z,8.55
2018-10-19T11:53:11.698Z,11.30
2018-10-19T11:55:41.131Z,12.23
2018-10-19T11:58:10.676Z,11.97
2018-10-19T12:00:39.927Z,14.47
2018-10-19T12:03:09.255Z,16.05
2018-10-19T12:05:38.601Z,15.58
2018-10-19T12:08:08.778Z,15.85
2018-10-19T12:10:38.062Z,16.67
2018-10-19T12:13:07.624Z,14.85
2018-10-19T12:15:36.958Z,11.50
2018-10-19T12:18:06.579Z,9.63
2018-10-19T12:20:35.902Z,11.73
2018-10-19T12:23:05.350Z,12.65
2018-10-19T12:25:34.376Z,4.78
2018-10-19T12:28:03.667Z,6.33
2018-10-19T12:30:32.934Z,12.23
2018-10-19T12:33:01.853Z,8.50
2018-10-19T12:35:30.982Z,9.60
2018-10-19T12:38:00.335Z,8.98
2018-10-19T12:40:29.558Z,6.92
2018-10-19T12:42:59.195Z,4.60
2018-10-19T12:46:43.422Z,9.75
2018-10-19T12:49:13.750Z,8.33
2018-10-19T12:51:42.849Z,9.75
2018-10-19T12:54:12.342Z,20.20
2018-10-19T12:56:41.555Z,13.80
2018-10-19T12:59:10.987Z,8.68
2018-10-19T13:01:40.022Z,5.10
2018-10-19T13:04:09.216Z,3.62
2018-10-19T13:06:38.414Z,11.38
2018-10-19T13:09:09.902Z,8.10
2018-10-19T13:11:39.011Z,8.50
2018-10-19T13:14:08.130Z,11.30
2018-10-19T13:16:37.326Z,8.90
2018-10-19T13:19:06.803Z,16.12
2018-10-19T13:21:35.903Z,16.07
2018-10-19T13:24:05.485Z,5.62
2018-10-19T13:26:34.415Z,18.70
2018-10-19T13:29:03.527Z,8.75
2018-10-19T13:31:32.800Z,9.28
2018-10-19T13:34:02.179Z,12.78
2018-10-19T13:36:31.312Z,10.50
2018-10-19T13:39:00.620Z,20.55
2018-10-19T13:41:29.723Z,12.58
2018-10-19T13:43:59.074Z,11.53
2018-10-19T13:46:28.285Z,9.25
2018-10-19T13:48:57.435Z,18.00
2018-10-19T13:51:26.464Z,7.33
2018-10-19T13:53:55.539Z,16.67
2018-10-19T13:56:24.990Z,9.93
2018-10-19T13:58:54.135Z,13.93
2018-10-19T14:01:23.245Z,11.97
2018-10-19T14:03:52.310Z,12.35
2018-10-19T14:06:21.530Z,10.90
2018-10-19T14:08:50.571Z,11.73
2018-10-19T14:11:19.883Z,10.38
2018-10-19T14:13:48.960Z,10.65
2018-10-19T14:16:18.047Z,8.48
2018-10-19T14:18:47.228Z,15.72
2018-10-19T14:21:16.272Z,8.40
2018-10-19T14:23:45.718Z,11.25
2018-10-19T14:26:14.828Z,12.05
2018-10-19T14:28:43.895Z,10.95
2018-10-19T14:31:12.910Z,7.42
2018-10-19T14:33:41.936Z,11.12
2018-10-19T14:36:11.542Z,8.08
2018-10-19T14:38:40.624Z,8.90
2018-10-19T14:41:09.819Z,10.45
2018-10-19T14:43:39.019Z,10.72
2018-10-19T14:46:08.110Z,12.73
2018-10-19T14:48:37.259Z,8.58
2018-10-19T14:51:06.687Z,10.10
2018-10-19T14:53:35.715Z,9.13
2018-10-19T14:56:04.855Z,9.78
2018-10-19T14:58:33.895Z,8.50
2018-10-19T15:01:03.291Z,12.45
2018-10-19T15:03:32.313Z,8.55
2018-10-19T15:06:01.620Z,12.98
2018-10-19T15:08:30.915Z,10.00
2018-10-19T15:11:00.171Z,13.38
2018-10-19T15:13:29.319Z,11.40
2018-10-19T15:15:58.415Z,9.98
2018-10-19T15:18:27.518Z,9.55
2018-10-19T15:20:56.776Z,14.03
2018-10-19T15:23:25.966Z,11.30
2018-10-19T15:25:55.267Z,10.38
2018-10-19T15:28:24.311Z,19.48
2018-10-19T15:30:53.661Z,13.88
2018-10-19T15:33:22.556Z,13.60
2018-10-19T15:35:51.733Z,14.87
2018-10-19T15:38:21.230Z,15.38
2018-10-19T15:40:50.198Z,15.80
2018-10-19T15:43:19.262Z,13.25
2018-10-19T15:45:48.289Z,14.45
2018-10-19T15:48:17.192Z,14.83
2018-10-19T15:50:46.417Z,13.75
2018-10-19T15:53:15.174Z,16.30
2018-10-19T15:55:44.058Z,16.32
2018-10-19T15:58:14.080Z,16.02
2018-10-19T16:00:43.122Z,12.88
2018-10-19T16:03:13.035Z,16.67
2018-10-19T16:05:42.303Z,11.53
2018-10-19T16:08:11.255Z,11.43
2018-10-19T16:10:41.026Z,13.40
2018-10-19T16:13:10.399Z,16.52
2018-10-19T16:15:39.948Z,11.55
2018-10-19T16:18:09.449Z,13.03
2018-10-19T16:20:38.402Z,12.93
2018-10-19T16:23:07.288Z,15.03
2018-10-19T16:25:36.242Z,17.87
2018-10-19T16:28:05.823Z,14.93
2018-10-19T16:30:34.798Z,11.93
2018-10-19T16:33:03.824Z,16.77
2018-10-19T16:35:32.671Z,21.37
2018-10-19T16:38:01.651Z,16.25
2018-10-19T16:40:30.566Z,16.75
2018-10-19T16:42:59.569Z,23.07
2018-10-19T16:45:28.772Z,13.75
2018-10-19T16:47:58.074Z,20.20
2018-10-19T16:50:27.480Z,16.02
2018-10-19T16:52:56.512Z,17.70
2018-10-19T16:55:25.481Z,13.48
2018-10-19T16:57:54.651Z,17.15
2018-10-19T17:00:23.638Z,18.37
2018-10-19T17:02:52.604Z,19.50
2018-10-19T17:05:21.688Z,19.57
2018-10-19T17:07:50.577Z,21.37
2018-10-19T17:10:19.832Z,16.45
2018-10-19T17:12:48.746Z,22.13
2018-10-19T17:15:17.816Z,25.95
2018-10-19T17:17:46.806Z,30.00
2018-10-19T17:20:15.604Z,21.70
2018-10-19T17:22:44.434Z,16.70
2018-10-19T17:25:13.477Z,22.32
2018-10-19T17:27:42.591Z,20.10
2018-10-19T17:30:13.150Z,17.82
2018-10-19T17:32:42.138Z,15.35
2018-10-19T17:35:11.250Z,18.52
2018-10-19T17:37:40.258Z,13.85
2018-10-19T17:40:10.158Z,17.12
2018-10-19T17:42:39.352Z,20.20
2018-10-19T17:45:09.723Z,24.43
2018-10-19T17:47:38.690Z,28.05
2018-10-19T17:50:07.662Z,16.50
2018-10-19T17:52:36.694Z,23.45
2018-10-19T17:55:06.902Z,16.93
2018-10-19T17:57:35.957Z,22.52
2018-10-19T18:00:05.486Z,24.32
2018-10-19T18:02:34.447Z,20.82
2018-10-19T18:05:03.719Z,24.32
2018-10-19T18:07:32.647Z,18.80
2018-10-19T18:10:01.763Z,22.20
2018-10-19T18:12:30.731Z,22.65
2018-10-19T18:14:59.588Z,15.90
2018-10-19T18:17:28.438Z,20.80
2018-10-19T18:19:57.427Z,23.52
2018-10-19T18:22:26.608Z,23.83
2018-10-19T18:24:55.290Z,25.95
2018-10-19T18:27:25.087Z,28.75
2018-10-19T18:29:54.351Z,27.10
2018-10-19T18:32:23.220Z,38.50
2018-10-19T18:34:52.190Z,32.20
2018-10-19T18:37:21.391Z,33.30
2018-10-19T18:39:50.704Z,38.05
2018-10-19T18:42:19.491Z,29.85
2018-10-19T18:44:48.510Z,23.20
2018-10-19T18:47:17.602Z,23.80
2018-10-19T18:49:46.647Z,30.50
2018-10-19T18:52:15.675Z,34.65
2018-10-19T18:54:44.624Z,32.63
2018-10-19T18:57:13.669Z,37.50
2018-10-19T18:59:42.566Z,36.77
2018-10-19T19:02:11.670Z,37.60
2018-10-19T19:04:40.743Z,32.55
2018-10-19T19:07:09.466Z,31.65
2018-10-19T19:09:38.343Z,34.20
2018-10-19T19:12:07.427Z,37.35
2018-10-19T19:14:36.633Z,33.30
2018-10-19T19:17:05.588Z,33.20
2018-10-19T19:19:34.403Z,30.70
2018-10-19T19:22:03.608Z,33.08
2018-10-19T19:24:37.838Z,31.23
2018-10-19T19:27:07.006Z,34.33
2018-10-19T19:29:35.986Z,29.35
2018-10-19T19:32:05.033Z,33.00
2018-10-19T19:34:34.206Z,30.72
2018-10-19T19:37:03.265Z,31.35
2018-10-19T19:39:32.409Z,32.70
2018-10-19T19:42:06.255Z,27.90
2018-10-19T19:44:35.371Z,24.23
2018-10-19T19:47:04.333Z,22.37
2018-10-19T19:49:34.713Z,27.77
2018-10-19T19:52:03.748Z,23.47
2018-10-19T19:54:32.828Z,31.12
2018-10-19T19:57:01.820Z,28.67
2018-10-19T19:59:30.694Z,26.35
2018-10-19T20:01:59.727Z,28.98
2018-10-19T20:04:28.606Z,26.23
2018-10-19T20:06:57.956Z,31.90
2018-10-19T20:09:26.793Z,31.77
2018-10-19T20:11:55.466Z,22.42
2018-10-19T20:14:24.997Z,23.27
2018-10-19T20:16:54.096Z,25.50
2018-10-19T20:19:23.515Z,28.05
2018-10-19T20:21:52.388Z,29.42
2018-10-19T20:24:21.622Z,28.45
2018-10-19T20:26:50.679Z,24.27
2018-10-19T20:29:19.670Z,27.65
2018-10-19T20:31:48.667Z,28.15
2018-10-19T20:34:17.668Z,33.28
2018-10-19T20:36:47.002Z,37.13
2018-10-19T20:39:16.050Z,38.67
2018-10-19T20:41:45.060Z,34.65
2018-10-19T20:44:14.862Z,34.20
2018-10-19T20:46:45.018Z,36.45
2018-10-19T20:49:13.991Z,34.18
2018-10-19T20:51:42.900Z,26.52
2018-10-19T20:54:12.917Z,24.57
2018-10-19T20:56:41.722Z,24.40
2018-10-19T20:59:10.620Z,26.62
2018-10-19T21:01:39.674Z,24.35
2018-10-19T21:04:08.768Z,25.82
2018-10-19T21:06:37.578Z,26.33
2018-10-19T21:09:10.991Z,25.80
2018-10-19T21:11:40.731Z,29.00
2018-10-19T21:14:09.959Z,28.62
2018-10-19T21:16:38.692Z,26.73
2018-10-19T21:19:07.774Z,28.85
2018-10-19T21:21:36.734Z,37.85
2018-10-19T21:24:05.861Z,33.10
2018-10-19T21:26:35.052Z,26.57
2018-10-19T21:29:03.965Z,27.60
2018-10-19T21:31:33.083Z,24.67
2018-10-19T21:34:02.567Z,23.73
2018-10-19T21:36:31.727Z,28.92
2018-10-19T21:39:00.656Z,32.33
2018-10-19T21:41:29.923Z,24.72
2018-10-19T21:43:59.066Z,24.12
2018-10-19T21:46:28.237Z,27.73
2018-10-19T21:48:59.202Z,23.40
2018-10-19T21:51:28.229Z,24.57
2018-10-19T21:53:57.290Z,25.72
2018-10-19T21:56:26.359Z,24.40
2018-10-19T21:58:55.700Z,26.87
2018-10-19T22:01:24.546Z,25.43
2018-10-19T22:03:53.748Z,24.47
2018-10-19T22:06:22.788Z,27.45
2018-10-19T22:08:51.736Z,29.15
2018-10-19T22:11:20.735Z,27.93
2018-10-19T22:13:49.515Z,28.12
2018-10-19T22:16:18.515Z,28.98
2018-10-19T22:18:47.832Z,46.58
2018-10-19T22:21:16.946Z,27.48
2018-10-19T22:23:45.921Z,24.52
2018-10-19T22:26:14.930Z,22.27
2018-10-19T22:28:43.896Z,25.95
2018-10-19T22:31:12.826Z,24.37
2018-10-19T22:33:41.508Z,27.62
2018-10-19T22:36:10.943Z,25.23
2018-10-19T22:38:40.252Z,22.58
2018-10-19T22:41:09.240Z,31.77
2018-10-19T22:43:38.180Z,24.55
2018-10-19T22:46:07.220Z,23.87
2018-10-19T22:48:36.261Z,29.85
2018-10-19T22:51:05.571Z,36.25
2018-10-19T22:53:34.730Z,26.42
2018-10-19T22:56:03.531Z,25.65
2018-10-19T22:58:32.591Z,25.25
2018-10-19T23:01:01.724Z,34.18
2018-10-19T23:03:30.885Z,29.80
2018-10-19T23:06:00.032Z,28.27
2018-10-19T23:08:29.284Z,21.82
2018-10-19T23:10:58.379Z,19.65
2018-10-19T23:13:27.417Z,26.87
2018-10-19T23:15:56.238Z,28.55
2018-10-19T23:18:25.310Z,22.70
2018-10-19T23:20:54.435Z,24.25
2018-10-19T23:23:23.412Z,24.55
2018-10-19T23:25:52.199Z,26.45
2018-10-19T23:28:21.619Z,27.73
2018-10-19T23:30:50.660Z,22.42
2018-10-19T23:33:19.602Z,21.07
2018-10-19T23:35:49.111Z,20.32
2018-10-19T23:38:18.312Z,22.25
2018-10-19T23:40:47.240Z,27.45
2018-10-19T23:43:16.269Z,17.92
2018-10-19T23:45:50.528Z,20.95
2018-10-19T23:48:19.634Z,25.40
2018-10-19T23:50:48.607Z,31.05
2018-10-19T23:53:17.587Z,28.17
2018-10-19T23:55:46.487Z,27.35
2018-10-19T23:58:15.351Z,31.33
